Estación Meteorológica Peña el Pijo (Robertgarden) [ 07/23/19 13:17:26 CEST ]

Fecha Hora Presion(HPa) Temp (°C) Humedad % Rocio (°C) Viento ( m/s) Direccion Lluvia 1Hora(mm) Lluvia 24H(mm) LLuvia Total(mm)
2019-Jan-23 01:01:40 999.800 2.9 86 0.8     0.51 2.07 165.76
2019-Jan-23 02:04:08 999.900 3.6 87 1.6     0.51 2.59 166.27
2019-Jan-23 03:01:40 999.400 4.1 86 1.9       2.59 166.27
2019-Jan-23 04:01:42 998.800 3.6 87 1.6     1.03 3.62 167.31
2019-Jan-23 05:01:39 998.300 3.6 86 1.5       3.62 167.31
2019-Jan-23 06:01:38 998.500 3.8 86 1.7       3.62 167.31
2019-Jan-23 07:01:46 998.500 4.1 85 1.8       3.62 167.31
2019-Jan-23 08:02:00 998.500 4.3 83 1.7       3.62 167.31
2019-Jan-23 09:01:34 998.200 4.1 83 1.5 2.2 WNW   3.62 167.31
2019-Jan-23 10:01:49 997.700 6.7 80 3.3 4.0 NNW   3.62 167.31
2019-Jan-23 11:01:34 998.900 8.5 70 3.4 2.8 NNW   3.62 167.31
2019-Jan-23 12:01:46 998.000 8.4 69 3.0       3.62 167.31
2019-Jan-23 13:01:51 997.700 8.8 65 2.6 0.8 NNE   3.62 167.31
2019-Jan-23 14:01:39 997.300 8.9 66 2.9 2.6 WNW   3.62 167.31
2019-Jan-23 15:01:31 997.100 7.8 68 2.3 3.2 WNW   3.62 167.31
2019-Jan-23 16:01:48 997.300 7.3 71 2.4       3.62 167.31
2019-Jan-23 17:01:40 997.100 7.6 71 2.7 2.1 NNW   3.62 167.31
2019-Jan-23 18:01:29 997.300 7.7 71 2.8       3.62 167.31
2019-Jan-23 19:02:00 997.700 7.8 71 2.9       3.62 167.31
2019-Jan-23 20:01:32 997.700 7.8 72 3.1       3.62 167.31
2019-Jan-23 21:01:40 997.500 7.9 72 3.2 0.8 WNW   3.62 167.31
2019-Jan-23 22:01:53 997.000 7.9 72 3.2       2.59 167.31
2019-Jan-23 23:02:04 996.600 7.6 73 3.1       2.07 167.31

Temperatura Máxima:    Temperatura Mínima:
Presión Máxima:999.900 Hpa    Presión Mínima:996.600 Hpa


Volver